Time;durP1;ratioP1;P1;durP2;ratioP2;P2;SDS_P1;SDS_P2;PMS_P1;PMS_P2;Temp;Humidity;BMP_temperature;BMP_pressure;BME280_temperature;BME280_humidity;BME280_pressure;Samples;Min_cycle;Max_cycle;Signal;HPM_P1;HPM_P2
2022/09/05 00:02:14;;;;;;;;;;;;;;;18.73;61.35;100596.66;4386426;32;34276;-81
2022/09/05 00:05:00;;;;;;;;;;;;;;;18.79;61.27;100600.75;4376394;32;34741;-81
2022/09/05 00:07:46;;;;;;;;;;;;;;;18.74;61.27;100602.87;4377741;32;33172;-82
2022/09/05 00:10:41;;;;;;;;;;;;;;;18.75;61.16;100604.59;4387073;32;34226;-81
2022/09/05 00:13:30;;;;;;;;;;;;;;;18.64;61.57;100608.78;4389933;32;33011;-82
2022/09/05 00:15:57;;;;;;;;;;;;;;;18.56;61.60;100607.56;4373469;32;33842;-82
2022/09/05 00:18:40;;;;;;;;;;;;;;;18.36;62.30;100614.19;4390719;32;32701;-82
2022/09/05 00:21:46;;;;;;;;;;;;;;;18.43;61.97;100612.84;4393231;32;34116;-82
2022/09/05 00:24:33;;;;;;;;;;;;;;;18.46;62.02;100603.75;4365394;32;869315;-82
2022/09/05 00:27:21;;;;;;;;;;;;;;;18.55;61.62;100597.81;4368247;32;33388;-82
2022/09/05 00:29:51;;;;;;;;;;;;;;;18.41;62.00;100606.72;4364388;32;32452;-82
2022/09/05 00:33:08;;;;;;;;;;;;;;;18.49;61.80;100604.44;4379060;32;32561;-82
2022/09/05 00:35:55;;;;;;;;;;;;;;;18.56;61.58;100594.19;4372721;32;32669;-82
2022/09/05 00:38:27;;;;;;;;;;;;;;;18.55;61.52;100603.16;4391434;32;32976;-82
2022/09/05 00:41:07;;;;;;;;;;;;;;;18.59;61.24;100600.19;4373208;32;32237;-81
2022/09/05 00:43:36;;;;;;;;;;;;;;;18.42;61.67;100598.62;4379001;32;33346;-82
2022/09/05 00:46:11;;;;;;;;;;;;;;;18.37;61.77;100594.50;4387004;32;33444;-82
2022/09/05 00:48:47;;;;;;;;;;;;;;;18.37;61.78;100597.16;4378969;32;34430;-82
2022/09/05 00:51:20;;;;;;;;;;;;;;;18.38;61.75;100599.78;4372702;32;33144;-82
2022/09/05 00:54:19;;;;;;;;;;;;;;;18.34;61.95;100608.94;4380394;32;32584;-82
2022/09/05 00:57:04;;;;;;;;;;;;;;;18.36;61.87;100604.34;4372910;32;32994;-82
2022/09/05 00:59:38;;;;;;;;;;;;;;;18.37;61.77;100605.19;4383274;32;34211;-82
2022/09/05 01:02:11;;;;;;;;;;;;;;;18.41;61.60;100601.38;4389375;32;31815;-82
2022/09/05 01:04:58;;;;;;;;;;;;;;;18.36;61.81;100592.78;4370161;32;34103;-82
2022/09/05 01:07:27;;;;;;;;;;;;;;;18.34;61.88;100597.38;4375802;32;33874;-82
2022/09/05 01:09:55;;;;;;;;;;;;;;;18.29;62.04;100602.16;4375392;32;34110;-82
2022/09/05 01:12:52;;;;;;;;;;;;;;;18.32;61.79;100597.47;4365258;32;32048;-82
2022/09/05 01:15:21;;;;;;;;;;;;;;;18.22;62.03;100600.81;4384024;32;34137;-81
2022/09/05 01:18:02;;;;;;;;;;;;;;;18.23;62.04;100594.50;4378644;32;33610;-81
2022/09/05 01:20:32;;;;;;;;;;;;;;;18.14;62.33;100594.16;4379154;32;35070;-81
2022/09/05 01:23:23;;;;;;;;;;;;;;;18.19;62.37;100595.69;4392758;32;33125;-81
2022/09/05 01:26:04;;;;;;;;;;;;;;;18.10;62.32;100591.78;4373671;32;33933;-81
2022/09/05 01:28:44;;;;;;;;;;;;;;;18.13;62.13;100595.09;4372779;32;33044;-81
2022/09/05 01:31:34;;;;;;;;;;;;;;;18.01;62.62;100593.19;4373346;32;32561;-81
2022/09/05 01:34:08;;;;;;;;;;;;;;;18.08;62.39;100591.84;4391013;32;31926;-81
2022/09/05 01:36:43;;;;;;;;;;;;;;;18.05;62.73;100589.37;4390885;32;34018;-81
2022/09/05 01:39:29;;;;;;;;;;;;;;;18.03;62.76;100591.28;4389569;32;34237;-81
2022/09/05 01:42:33;;;;;;;;;;;;;;;18.06;62.79;100591.09;4392321;32;34596;-81
2022/09/05 01:45:04;;;;;;;;;;;;;;;18.08;62.76;100594.50;4384905;32;33110;-81
2022/09/05 01:47:52;;;;;;;;;;;;;;;18.03;62.70;100598.44;4378190;32;34004;-81
2022/09/05 01:50:36;;;;;;;;;;;;;;;18.06;62.53;100595.59;4384580;32;34113;-82
2022/09/05 01:53:24;;;;;;;;;;;;;;;17.91;62.85;100598.25;4365873;32;34208;-82
2022/09/05 01:56:15;;;;;;;;;;;;;;;17.95;62.78;100598.94;4385038;32;32222;-81
2022/09/05 01:58:52;;;;;;;;;;;;;;;18.02;62.22;100599.41;4361018;32;34028;-81
2022/09/05 02:01:23;;;;;;;;;;;;;;;18.03;62.02;100599.28;4377676;32;34482;-81
2022/09/05 02:04:31;;;;;;;;;;;;;;;17.78;62.51;100591.06;4392996;32;33041;-81
2022/09/05 02:06:59;;;;;;;;;;;;;;;17.77;62.60;100605.38;4377974;32;32868;-81
2022/09/05 02:09:56;;;;;;;;;;;;;;;17.71;62.57;100600.38;4369364;32;34289;-81
2022/09/05 02:12:34;;;;;;;;;;;;;;;17.64;62.65;100589.22;4385109;32;33975;-81
2022/09/05 02:15:03;;;;;;;;;;;;;;;17.71;62.36;100600.38;4379384;32;34776;-81
2022/09/05 02:17:30;;;;;;;;;;;;;;;17.72;62.32;100604.78;4374423;32;33612;-82
2022/09/05 02:20:29;;;;;;;;;;;;;;;17.77;62.20;100605.38;4382752;32;33127;-81
2022/09/05 02:23:25;;;;;;;;;;;;;;;17.71;62.52;100600.38;4367253;32;33275;-81
2022/09/05 02:26:11;;;;;;;;;;;;;;;17.62;63.05;100594.66;4358413;32;33847;-81
2022/09/05 02:28:38;;;;;;;;;;;;;;;17.62;63.21;100602.66;4378517;32;31856;-81
2022/09/05 02:31:24;;;;;;;;;;;;;;;17.69;62.84;100594.28;4380068;32;33041;-82
2022/09/05 02:33:54;;;;;;;;;;;;;;;17.63;62.88;100604.38;4394141;32;34906;-81
2022/09/05 02:36:57;;;;;;;;;;;;;;;17.62;62.79;100599.13;4367917;32;32688;-81
2022/09/05 02:39:28;;;;;;;;;;;;;;;17.69;62.46;100602.28;4376670;32;32379;-83
2022/09/05 02:42:42;;;;;;;;;;;;;;;17.67;62.20;100595.22;4369156;32;32786;-83
2022/09/05 02:45:48;;;;;;;;;;;;;;;17.68;62.14;100606.78;4366335;32;32723;-82
2022/09/05 02:48:19;;;;;;;;;;;;;;;17.63;62.18;100607.03;4394113;32;34253;-82
2022/09/05 02:51:16;;;;;;;;;;;;;;;17.67;61.99;100610.41;4377189;32;33272;-82
2022/09/05 02:54:23;;;;;;;;;;;;;;;17.70;61.87;100604.00;4386976;32;34149;-82
2022/09/05 02:57:30;;;;;;;;;;;;;;;17.48;62.42;100610.63;4392968;32;34544;-82
2022/09/05 03:00:18;;;;;;;;;;;;;;;17.38;62.64;100609.47;4389469;32;33702;-82
2022/09/05 03:02:52;;;;;;;;;;;;;;;17.36;62.92;100614.88;4372818;32;34056;-82
2022/09/05 03:05:24;;;;;;;;;;;;;;;17.52;62.44;100605.94;4392751;32;34657;-82
2022/09/05 03:08:07;;;;;;;;;;;;;;;17.78;61.41;100612.44;4379142;32;33785;-82
2022/09/05 03:10:34;;;;;;;;;;;;;;;17.33;62.99;100615.06;4392649;32;33062;-81
2022/09/05 03:13:37;;;;;;;;;;;;;;;17.22;63.75;100613.97;4380248;32;33664;-82
2022/09/05 03:16:26;;;;;;;;;;;;;;;17.27;63.97;100611.88;4379344;32;32916;-82
2022/09/05 03:19:13;;;;;;;;;;;;;;;17.31;63.54;100621.44;4378930;32;34358;-81
2022/09/05 03:21:52;;;;;;;;;;;;;;;17.39;63.29;100620.03;4380346;32;32885;-82
2022/09/05 03:24:39;;;;;;;;;;;;;;;17.35;63.41;100625.66;4392527;32;32405;-81
2022/09/05 03:27:06;;;;;;;;;;;;;;;17.17;63.79;100626.72;4389558;32;33014;-81
2022/09/05 03:29:42;;;;;;;;;;;;;;;17.17;64.03;100626.72;4379737;32;34417;-81
2022/09/05 03:32:32;;;;;;;;;;;;;;;17.27;63.56;100627.91;4383931;32;34361;-82
2022/09/05 03:35:09;;;;;;;;;;;;;;;17.24;63.56;100620.94;4382992;32;33128;-82
2022/09/05 03:37:41;;;;;;;;;;;;;;;17.11;64.03;100626.13;4377702;32;34196;-82
2022/09/05 03:40:24;;;;;;;;;;;;;;;17.14;63.96;100620.63;4385552;32;32783;-82
2022/09/05 03:42:58;;;;;;;;;;;;;;;17.17;63.83;100632.06;4392378;32;33689;-82
2022/09/05 03:45:35;;;;;;;;;;;;;;;17.00;64.19;100630.37;4392376;32;33455;-81
2022/09/05 03:48:18;;;;;;;;;;;;;;;17.04;64.32;100638.13;4367404;32;32531;-82
2022/09/05 03:51:18;;;;;;;;;;;;;;;16.84;65.05;100631.22;4384689;32;34710;-82
2022/09/05 03:54:10;;;;;;;;;;;;;;;17.17;63.80;100632.06;4377398;32;32904;-81
2022/09/05 03:57:18;;;;;;;;;;;;;;;17.09;63.52;100636.03;4388201;32;33705;-82
2022/09/05 04:00:09;;;;;;;;;;;;;;;17.05;63.50;100645.16;4392337;32;32903;-82
2022/09/05 04:02:43;;;;;;;;;;;;;;;17.19;63.00;100656.88;4393312;32;34510;-82
2022/09/05 04:05:32;;;;;;;;;;;;;;;17.02;63.38;100650.66;4379330;32;33228;-82
2022/09/05 04:08:19;;;;;;;;;;;;;;;17.08;63.22;100652.97;4376140;32;32940;-81
2022/09/05 04:11:03;;;;;;;;;;;;;;;17.09;63.23;100654.72;4368744;32;34319;-81
2022/09/05 04:13:51;;;;;;;;;;;;;;;17.18;62.94;100655.13;4390397;32;33005;-81
2022/09/05 04:16:19;;;;;;;;;;;;;;;17.17;62.89;100656.06;4388357;32;34125;-81
2022/09/05 04:18:53;;;;;;;;;;;;;;;17.09;63.04;100660.06;4378812;32;32222;-81
2022/09/05 04:21:28;;;;;;;;;;;;;;;16.97;63.25;100660.75;4366561;32;33013;-81
2022/09/05 04:23:56;;;;;;;;;;;;;;;16.84;63.61;100667.72;4384796;32;34669;-81
2022/09/05 04:26:39;;;;;;;;;;;;;;;17.00;63.18;100668.59;4377563;32;34210;-81
2022/09/05 04:29:17;;;;;;;;;;;;;;;17.00;63.28;100673.94;4378075;32;32254;-81
2022/09/05 04:31:48;;;;;;;;;;;;;;;16.96;63.53;100672.38;4365748;32;34346;-81
2022/09/05 04:34:41;;;;;;;;;;;;;;;17.02;63.54;100674.69;4366407;32;33267;-81
2022/09/05 04:37:09;;;;;;;;;;;;;;;16.93;63.93;100677.87;4376651;32;32946;-81
2022/09/05 04:39:37;;;;;;;;;;;;;;;17.00;63.97;100673.94;4374705;32;33802;-81
2022/09/05 04:42:04;;;;;;;;;;;;;;;17.11;63.73;100682.16;4363197;32;33129;-82
2022/09/05 04:44:50;;;;;;;;;;;;;;;17.08;64.11;100682.31;4376681;32;34082;-81
2022/09/05 04:47:24;;;;;;;;;;;;;;;17.17;63.91;100680.09;4368469;32;32988;-82
2022/09/05 04:49:54;;;;;;;;;;;;;;;17.04;64.58;100687.94;4364105;32;31986;-82
2022/09/05 04:52:22;;;;;;;;;;;;;;;17.15;64.24;100681.06;4357859;32;32874;-82
2022/09/05 04:55:04;;;;;;;;;;;;;;;17.30;63.79;100689.13;4364342;32;33101;-83
2022/09/05 04:57:37;;;;;;;;;;;;;;;17.36;63.69;100691.44;4364829;32;33938;-82
2022/09/05 05:00:05;;;;;;;;;;;;;;;17.22;64.03;100688.69;4364280;32;32064;-82
2022/09/05 05:02:54;;;;;;;;;;;;;;;17.26;64.16;100695.59;4372182;32;34261;-82
2022/09/05 05:05:49;;;;;;;;;;;;;;;17.49;63.81;100691.59;4377516;32;34997;-83
2022/09/05 05:08:56;;;;;;;;;;;;;;;17.65;63.68;100698.59;4363747;32;34837;-83
2022/09/05 05:11:42;;;;;;;;;;;;;;;17.77;63.87;100690.87;4378207;32;34031;-82
2022/09/05 05:14:42;;;;;;;;;;;;;;;17.67;64.30;100691.37;4368896;32;32980;-82
2022/09/05 05:17:29;;;;;;;;;;;;;;;17.80;63.80;100696.00;4372526;32;34117;-82
2022/09/05 05:20:17;;;;;;;;;;;;;;;17.88;63.46;100699.09;4376782;32;33302;-82
2022/09/05 05:23:08;;;;;;;;;;;;;;;18.13;62.96;100687.78;4376842;32;34078;-82
2022/09/05 05:25:49;;;;;;;;;;;;;;;18.30;62.52;100690.28;4364017;32;32628;-82
2022/09/05 05:28:23;;;;;;;;;;;;;;;18.31;62.22;100696.50;4376478;32;34095;-82
2022/09/05 05:30:52;;;;;;;;;;;;;;;18.62;61.55;100696.31;4369282;32;34828;-82
2022/09/05 05:33:30;;;;;;;;;;;;;;;18.71;61.34;100694.06;4379676;32;33251;-82
2022/09/05 05:35:58;;;;;;;;;;;;;;;18.74;61.03;100694.69;4366254;32;32721;-82
2022/09/05 05:38:38;;;;;;;;;;;;;;;18.92;60.60;100692.66;4366710;32;32878;-82
2022/09/05 05:41:11;;;;;;;;;;;;;;;19.15;60.14;100692.03;4366638;32;33813;-82
2022/09/05 05:43:39;;;;;;;;;;;;;;;18.80;60.14;100704.13;4366096;32;32183;-82
2022/09/05 05:46:23;;;;;;;;;;;;;;;19.14;59.93;100706.41;4367920;32;33446;-83
2022/09/05 05:48:51;;;;;;;;;;;;;;;19.17;59.24;100698.13;4368156;32;34373;-82
2022/09/05 05:51:23;;;;;;;;;;;;;;;19.41;58.86;100705.53;4381210;32;33983;-82
2022/09/05 05:54:31;;;;;;;;;;;;;;;19.46;58.88;100703.41;4366767;32;32246;-82
2022/09/05 05:57:17;;;;;;;;;;;;;;;19.61;57.89;100705.13;4382499;32;33931;-82
2022/09/05 06:00:00;;;;;;;;;;;;;;;19.93;57.76;100707.41;4381166;32;33137;-82
2022/09/05 06:02:46;;;;;;;;;;;;;;;20.12;57.80;100699.81;4380454;32;33990;-82
2022/09/05 06:05:37;;;;;;;;;;;;;;;20.40;58.66;100708.63;4380828;32;33715;-81
2022/09/05 06:08:07;;;;;;;;;;;;;;;20.52;58.24;100704.28;4381671;32;34239;-82
2022/09/05 06:11:03;;;;;;;;;;;;;;;20.68;56.13;100705.75;4373936;32;34104;-82
2022/09/05 06:13:52;;;;;;;;;;;;;;;20.82;56.36;100691.34;4379123;32;33746;-82
2022/09/05 06:16:49;;;;;;;;;;;;;;;20.87;55.00;100693.69;4378502;32;32122;-82
2022/09/05 06:19:35;;;;;;;;;;;;;;;20.87;54.97;100696.38;4378688;32;32968;-82
2022/09/05 06:22:42;;;;;;;;;;;;;;;20.71;56.44;100705.53;4358988;32;33574;-81
2022/09/05 06:25:09;;;;;;;;;;;;;;;20.64;55.47;100704.25;4380057;32;34927;-82
2022/09/05 06:27:43;;;;;;;;;;;;;;;20.75;55.37;100699.94;4379427;32;33405;-82
2022/09/05 06:30:35;;;;;;;;;;;;;;;21.11;54.30;100702.63;4380557;32;32867;-82
2022/09/05 06:33:09;;;;;;;;;;;;;;;21.25;54.78;100692.72;4373537;32;33626;-81
2022/09/05 06:35:48;;;;;;;;;;;;;;;21.01;54.31;100701.59;4375465;32;32998;-82
2022/09/05 06:38:25;;;;;;;;;;;;;;;21.56;53.60;100705.63;4374570;32;33213;-82
2022/09/05 06:41:05;;;;;;;;;;;;;;;21.17;55.64;100702.22;4370594;32;33133;-83
2022/09/05 06:43:51;;;;;;;;;;;;;;;21.79;53.19;100709.25;4369816;32;34054;-82
2022/09/05 06:46:35;;;;;;;;;;;;;;;21.91;52.01;100710.12;4385003;32;33128;-82
2022/09/05 06:49:24;;;;;;;;;;;;;;;21.86;52.16;100709.62;4365806;32;33004;-82
2022/09/05 06:52:04;;;;;;;;;;;;;;;22.17;51.42;100713.53;4369196;32;34871;-82
2022/09/05 06:55:16;;;;;;;;;;;;;;;22.00;51.46;100714.81;4376678;32;34281;-82
2022/09/05 06:57:43;;;;;;;;;;;;;;;21.82;52.46;100718.91;4358203;32;34031;-82
2022/09/05 07:00:19;;;;;;;;;;;;;;;22.27;51.36;100719.06;4377248;32;32003;-83
2022/09/05 07:03:01;;;;;;;;;;;;;;;22.59;50.51;100714.66;4372440;32;34996;-83
2022/09/05 07:05:40;;;;;;;;;;;;;;;22.61;50.32;100711.87;4366148;32;34901;-81
2022/09/05 07:08:26;;;;;;;;;;;;;;;23.08;49.25;100708.06;4369362;32;34894;-82
2022/09/05 07:11:04;;;;;;;;;;;;;;;22.89;49.93;100711.41;4366779;32;32631;-86
2022/09/05 07:13:57;;;;;;;;;;;;;;;22.55;52.34;100713.22;4366968;32;34854;-86
2022/09/05 07:16:49;;;;;;;;;;;;;;;23.28;51.18;100716.38;4353430;32;33125;-86
2022/09/05 07:19:26;;;;;;;;;;;;;;;23.67;49.76;100723.00;4363778;32;34603;-86
2022/09/05 07:22:12;;;;;;;;;;;;;;;23.91;49.92;100715.53;4365850;32;33213;-86
2022/09/05 07:29:20;;;;;;;;;;;;;;;23.98;49.11;100719.44;4379537;32;35094;-87
2022/09/05 07:31:50;;;;;;;;;;;;;;;24.16;47.17;100713.41;4373911;32;33872;-87
2022/09/05 07:34:22;;;;;;;;;;;;;;;24.46;46.46;100715.34;4378196;32;33280;-86
2022/09/05 07:36:54;;;;;;;;;;;;;;;24.22;46.48;100708.37;4377913;32;32840;-86
2022/09/05 07:39:50;;;;;;;;;;;;;;;24.48;47.14;100716.06;4378017;32;33278;-86
2022/09/05 07:42:31;;;;;;;;;;;;;;;24.51;46.42;100708.56;4377981;32;34344;-86
2022/09/05 07:45:00;;;;;;;;;;;;;;;24.78;45.34;100710.69;4377928;32;33656;-86
2022/09/05 07:47:29;;;;;;;;;;;;;;;25.02;45.60;100706.78;4378059;32;32580;-85
2022/09/05 07:49:57;;;;;;;;;;;;;;;25.11;44.10;100710.50;4377854;32;34083;-86
2022/09/05 07:52:45;;;;;;;;;;;;;;;25.14;43.58;100702.97;4367267;32;33956;-86
2022/09/05 07:55:36;;;;;;;;;;;;;;;25.05;41.64;100706.47;4367550;32;34039;-86
2022/09/05 07:58:44;;;;;;;;;;;;;;;25.39;41.39;100703.44;4368200;32;33821;-86
2022/09/05 08:01:12;;;;;;;;;;;;;;;25.13;41.33;100701.28;4362824;32;33945;-86
2022/09/05 08:03:40;;;;;;;;;;;;;;;25.46;42.16;100694.63;4365599;32;34107;-86
2022/09/05 08:06:09;;;;;;;;;;;;;;;25.48;43.46;100697.19;4353269;32;32414;-86
2022/09/05 08:09:06;;;;;;;;;;;;;;;25.73;41.67;100695.75;4365727;32;33957;-86
2022/09/05 08:11:55;;;;;;;;;;;;;;;26.24;39.18;100695.44;4355461;32;35048;-86
2022/09/05 08:14:35;;;;;;;;;;;;;;;25.44;40.84;100701.16;4366758;32;32707;-85
2022/09/05 08:17:13;;;;;;;;;;;;;;;25.98;41.31;100703.34;4377393;32;32391;-81
2022/09/05 08:20:00;;;;;;;;;;;;;;;25.77;38.08;100700.78;4372098;32;34813;-81
2022/09/05 08:22:44;;;;;;;;;;;;;;;26.16;37.71;100702.56;4373080;32;32569;-83
2022/09/05 08:25:29;;;;;;;;;;;;;;;26.20;38.11;100698.59;4372550;32;34171;-83
2022/09/05 08:28:37;;;;;;;;;;;;;;;26.72;36.92;100693.59;4373302;32;34183;-85
2022/09/05 08:31:11;;;;;;;;;;;;;;;26.80;39.03;100697.25;4349489;32;33855;-84
2022/09/05 08:33:38;;;;;;;;;;;;;;;27.13;38.30;100692.28;4368468;32;34405;-84
2022/09/05 08:36:12;;;;;;;;;;;;;;;26.98;38.32;100691.91;4371943;32;32844;-85
2022/09/05 08:38:42;;;;;;;;;;;;;;;27.21;36.14;100688.81;4383765;32;33075;-84
2022/09/05 08:41:13;;;;;;;;;;;;;;;27.40;36.08;100690.53;4364625;32;33881;-84
2022/09/05 08:44:00;;;;;;;;;;;;;;;27.40;37.12;100687.81;4365970;32;34176;-81
2022/09/05 08:47:00;;;;;;;;;;;;;;;27.19;38.76;100686.22;4380905;32;32881;-82
2022/09/05 08:49:37;;;;;;;;;;;;;;;27.40;35.25;100683.25;4350903;32;33080;-81
2022/09/05 08:52:27;;;;;;;;;;;;;;;27.10;38.22;100679.00;4353012;32;32532;-81
2022/09/05 08:55:17;;;;;;;;;;;;;;;27.01;38.45;100677.19;4368481;32;34423;-82
2022/09/05 08:57:45;;;;;;;;;;;;;;;27.22;38.84;100674.25;4356206;32;33897;-82
2022/09/05 09:00:13;;;;;;;;;;;;;;;27.32;36.81;100675.00;4372379;32;31578;-82
2022/09/05 09:02:58;;;;;;;;;;;;;;;27.62;37.70;100676.47;4364651;32;34185;-82
2022/09/05 09:05:46;;;;;;;;;;;;;;;27.94;36.16;100675.09;4387090;32;34688;-82
2022/09/05 09:08:48;;;;;;;;;;;;;;;28.31;35.43;100667.53;4365952;32;35867;-81
2022/09/05 09:11:19;;;;;;;;;;;;;;;28.16;35.85;100660.16;4371488;32;33049;-81
2022/09/05 09:13:51;;;;;;;;;;;;;;;28.45;35.17;100651.69;4378932;32;33830;-82
2022/09/05 09:16:25;;;;;;;;;;;;;;;28.49;35.29;100647.63;4351351;32;32636;-81
2022/09/05 09:18:52;;;;;;;;;;;;;;;28.32;35.98;100644.78;4369192;32;32606;-82
2022/09/05 09:21:20;;;;;;;;;;;;;;;28.58;34.50;100649.34;4385377;32;33520;-82
2022/09/05 09:23:50;;;;;;;;;;;;;;;28.54;35.12;100646.13;4381682;32;35067;-81
2022/09/05 09:26:18;;;;;;;;;;;;;;;28.52;34.99;100648.13;4352792;32;32933;-81
2022/09/05 09:29:11;;;;;;;;;;;;;;;28.45;36.86;100657.13;4377063;32;34348;-81
2022/09/05 09:31:51;;;;;;;;;;;;;;;28.64;35.39;100654.16;4365783;32;33757;-81
2022/09/05 09:34:25;;;;;;;;;;;;;;;28.63;34.77;100655.19;4358181;32;34264;-80
2022/09/05 09:36:58;;;;;;;;;;;;;;;28.35;34.38;100659.12;4380858;32;33352;-81
2022/09/05 09:39:46;;;;;;;;;;;;;;;28.58;33.83;100658.38;4390411;32;34884;-81
2022/09/05 09:42:33;;;;;;;;;;;;;;;28.26;36.02;100659.03;4388964;32;31757;-81
2022/09/05 09:45:20;;;;;;;;;;;;;;;27.53;36.78;100661.13;4386832;32;34944;-82
2022/09/05 09:48:04;;;;;;;;;;;;;;;27.66;37.37;100666.19;4384701;32;34006;-81
2022/09/05 09:50:51;;;;;;;;;;;;;;;27.47;36.70;100659.06;4368639;32;33445;-81
2022/09/05 09:53:28;;;;;;;;;;;;;;;27.81;37.64;100649.19;4378325;32;32508;-81
2022/09/05 09:56:08;;;;;;;;;;;;;;;27.89;35.76;100651.13;4377724;32;34283;-81
2022/09/05 09:58:42;;;;;;;;;;;;;;;27.85;35.86;100647.03;4380420;32;34263;-81
2022/09/05 10:01:20;;;;;;;;;;;;;;;27.65;36.49;100649.06;4363095;32;33155;-81
2022/09/05 10:04:18;;;;;;;;;;;;;;;27.36;36.55;100651.16;4379195;32;32333;-82
2022/09/05 10:07:24;;;;;;;;;;;;;;;27.05;37.81;100648.75;4378646;32;34199;-82
2022/09/05 10:10:18;;;;;;;;;;;;;;;27.18;38.72;100643.00;4376243;32;33195;-83
2022/09/05 10:13:25;;;;;;;;;;;;;;;27.44;39.17;100648.50;4385226;32;33880;-82
2022/09/05 10:16:05;;;;;;;;;;;;;;;27.27;39.92;100645.66;4376594;32;32320;-82
2022/09/05 10:18:42;;;;;;;;;;;;;;;27.91;39.18;100640.09;4387232;32;34273;-83
2022/09/05 10:21:24;;;;;;;;;;;;;;;28.09;38.46;100638.19;4376425;32;33989;-83
2022/09/05 10:24:10;;;;;;;;;;;;;;;27.98;35.88;100644.75;4382304;32;34442;-83
2022/09/05 10:26:57;;;;;;;;;;;;;;;28.29;36.11;100642.38;4391889;32;32561;-83
2022/09/05 10:29:30;;;;;;;;;;;;;;;28.35;36.80;100634.66;4386175;32;33824;-82
2022/09/05 10:32:05;;;;;;;;;;;;;;;28.31;37.61;100634.09;4387895;32;33706;-82
2022/09/05 10:34:57;;;;;;;;;;;;;;;28.23;37.94;100637.59;4368085;32;33591;-82
2022/09/05 10:37:50;;;;;;;;;;;;;;;27.85;36.99;100632.59;4385044;32;32224;-82
2022/09/05 10:40:19;;;;;;;;;;;;;;;27.64;37.40;100628.34;4360479;32;34050;-81
2022/09/05 10:42:48;;;;;;;;;;;;;;;27.83;37.10;100618.38;4379104;32;33794;-82
2022/09/05 10:45:29;;;;;;;;;;;;;;;27.84;36.98;100622.78;4378654;32;34102;-82
2022/09/05 10:48:08;;;;;;;;;;;;;;;28.15;37.46;100614.97;4364188;32;32382;-81
2022/09/05 10:51:09;;;;;;;;;;;;;;;28.71;34.95;100609.00;4370343;32;34784;-82
2022/09/05 10:54:11;;;;;;;;;;;;;;;29.06;34.47;100598.94;4379010;32;33549;-82
2022/09/05 10:56:41;;;;;;;;;;;;;;;29.14;34.23;100598.94;4375335;32;33217;-81
2022/09/05 10:59:15;;;;;;;;;;;;;;;29.54;34.36;100594.53;4372239;32;33086;-81
2022/09/05 11:02:05;;;;;;;;;;;;;;;29.56;34.87;100593.37;4385540;32;32715;-81
2022/09/05 11:04:59;;;;;;;;;;;;;;;29.45;33.65;100595.56;4374332;32;33100;-81
2022/09/05 11:07:35;;;;;;;;;;;;;;;29.73;35.52;100591.50;4387613;32;33817;-80
2022/09/05 11:10:09;;;;;;;;;;;;;;;29.72;35.61;100592.53;4371651;32;33635;-80
2022/09/05 11:12:55;;;;;;;;;;;;;;;30.02;33.02;100587.34;4379283;32;33694;-80
2022/09/05 11:15:36;;;;;;;;;;;;;;;30.27;30.98;100586.28;4387293;32;34327;-80
2022/09/05 11:18:31;;;;;;;;;;;;;;;30.20;31.34;100584.44;4390206;32;34033;-80
2022/09/05 11:21:24;;;;;;;;;;;;;;;30.56;32.64;100582.06;4382219;32;32276;-80
2022/09/05 11:23:56;;;;;;;;;;;;;;;30.75;35.29;100578.09;4376626;32;33493;-81
2022/09/05 11:26:29;;;;;;;;;;;;;;;30.77;32.37;100574.16;4365902;32;33728;-80
2022/09/05 11:29:07;;;;;;;;;;;;;;;30.35;32.34;100572.63;4385126;32;34007;-80
2022/09/05 11:31:41;;;;;;;;;;;;;;;30.67;31.37;100573.50;4381672;32;32659;-80
2022/09/05 11:34:48;;;;;;;;;;;;;;;30.32;32.22;100572.97;4385582;32;34547;-80
2022/09/05 11:37:42;;;;;;;;;;;;;;;30.38;32.24;100573.28;4386310;32;35312;-80
2022/09/05 11:40:48;;;;;;;;;;;;;;;29.82;32.35;100570.56;4366901;32;33799;-80
2022/09/05 11:43:45;;;;;;;;;;;;;;;29.77;33.39;100576.53;4384500;32;33281;-80
2022/09/05 11:46:18;;;;;;;;;;;;;;;29.70;31.54;100561.88;4379445;32;34318;-80
2022/09/05 11:49:05;;;;;;;;;;;;;;;29.76;32.50;100566.63;4376772;32;34146;-80
2022/09/05 11:51:59;;;;;;;;;;;;;;;29.93;31.24;100561.16;4389972;32;33014;-80
2022/09/05 11:54:29;;;;;;;;;;;;;;;29.36;33.14;100562.06;4377217;32;33716;-81
2022/09/05 11:56:56;;;;;;;;;;;;;;;29.08;36.15;100565.09;4378230;32;32562;-80
2022/09/05 12:00:04;;;;;;;;;;;;;;;28.91;33.39;100565.22;4376738;32;33472;-80
2022/09/05 12:02:52;;;;;;;;;;;;;;;29.18;33.34;100554.06;4386609;32;34143;-80
2022/09/05 12:05:20;;;;;;;;;;;;;;;29.37;33.93;100563.75;4377158;32;32801;-80
2022/09/05 12:08:08;;;;;;;;;;;;;;;29.50;34.55;100557.81;4388832;32;35005;-80
2022/09/05 12:10:38;;;;;;;;;;;;;;;29.87;33.30;100557.28;4377475;32;33005;-81
2022/09/05 12:13:15;;;;;;;;;;;;;;;29.64;34.23;100548.97;4390894;32;33991;-80
2022/09/05 12:15:45;;;;;;;;;;;;;;;29.18;35.91;100556.78;4386352;32;33900;-80
2022/09/05 12:18:33;;;;;;;;;;;;;;;29.55;32.83;100555.44;4370106;32;33004;-80
2022/09/05 12:21:21;;;;;;;;;;;;;;;29.21;33.16;100556.44;4373162;32;32864;-80
2022/09/05 12:24:13;;;;;;;;;;;;;;;29.30;34.21;100552.72;4373499;32;32347;-80
2022/09/05 12:27:02;;;;;;;;;;;;;;;29.44;34.09;100544.91;4374449;32;32992;-80
2022/09/05 12:29:53;;;;;;;;;;;;;;;29.26;33.79;100537.75;4378933;32;34179;-80
2022/09/05 12:32:26;;;;;;;;;;;;;;;29.08;34.90;100540.62;4379450;32;34723;-80
2022/09/05 12:35:40;;;;;;;;;;;;;;;29.07;35.25;100540.81;4374196;32;32701;-80
2022/09/05 12:38:27;;;;;;;;;;;;;;;29.19;35.08;100542.16;4379672;32;33087;-80
2022/09/05 12:41:20;;;;;;;;;;;;;;;29.02;34.56;100535.03;4376718;32;32728;-80
2022/09/05 12:44:27;;;;;;;;;;;;;;;28.87;34.39;100536.69;4368832;32;34329;-80
2022/09/05 12:47:11;;;;;;;;;;;;;;;29.17;33.12;100522.44;4389085;32;34398;-80
2022/09/05 12:49:45;;;;;;;;;;;;;;;29.26;32.54;100526.88;4373866;32;32090;-80
2022/09/05 12:52:35;;;;;;;;;;;;;;;28.96;35.40;100530.25;4387469;32;33113;-80
2022/09/05 12:55:08;;;;;;;;;;;;;;;28.67;36.20;100528.81;4385402;32;34168;-80
2022/09/05 12:57:38;;;;;;;;;;;;;;;28.68;34.83;100519.66;4375986;32;34990;-81
2022/09/05 13:00:25;;;;;;;;;;;;;;;28.81;37.18;100517.28;4371440;32;31997;-80
2022/09/05 13:03:17;;;;;;;;;;;;;;;28.86;37.33;100524.94;4361436;32;33302;-80
2022/09/05 13:06:05;;;;;;;;;;;;;;;28.99;35.75;100516.31;4388130;32;34098;-80
2022/09/05 13:08:46;;;;;;;;;;;;;;;29.22;34.78;100517.34;4387534;32;33345;-80
2022/09/05 13:11:26;;;;;;;;;;;;;;;29.21;34.96;100518.37;4377337;32;32826;-80
2022/09/05 13:14:24;;;;;;;;;;;;;;;29.38;34.72;100504.75;4376855;32;34920;-80
2022/09/05 13:17:12;;;;;;;;;;;;;;;28.90;36.93;100507.28;4375286;32;34671;-81
2022/09/05 13:19:50;;;;;;;;;;;;;;;28.87;35.33;100504.91;4360310;32;33006;-80
2022/09/05 13:22:18;;;;;;;;;;;;;;;29.14;34.39;100495.59;4364278;32;33113;-80
2022/09/05 13:24:48;;;;;;;;;;;;;;;29.43;33.39;100488.75;4383732;32;33830;-82
2022/09/05 13:27:18;;;;;;;;;;;;;;;29.36;34.01;100491.34;4385933;32;32881;-81
2022/09/05 13:29:52;;;;;;;;;;;;;;;29.50;33.51;100495.22;4358894;32;32748;-81
2022/09/05 13:32:49;;;;;;;;;;;;;;;29.39;34.52;100492.84;4374604;32;31797;-82
2022/09/05 13:35:38;;;;;;;;;;;;;;;29.66;33.02;100491.63;4384553;32;33959;-82
2022/09/05 13:38:36;;;;;;;;;;;;;;;29.79;31.86;100479.19;4385007;32;34410;-82
2022/09/05 13:41:17;;;;;;;;;;;;;;;29.64;33.01;100483.66;4370529;32;33812;-82
2022/09/05 13:43:55;;;;;;;;;;;;;;;29.47;32.67;100487.41;4359627;32;32498;-82
2022/09/05 13:46:47;;;;;;;;;;;;;;;29.01;34.93;100487.97;4382866;32;34126;-81
2022/09/05 13:49:25;;;;;;;;;;;;;;;29.11;34.79;100487.78;4376131;32;34099;-81
2022/09/05 13:52:16;;;;;;;;;;;;;;;29.24;34.15;100479.94;4369556;32;34853;-81
2022/09/05 13:54:45;;;;;;;;;;;;;;;29.18;33.63;100486.06;4380074;32;33265;-82
2022/09/05 13:57:26;;;;;;;;;;;;;;;29.04;33.82;100471.28;4366829;32;32771;-81
2022/09/05 14:00:05;;;;;;;;;;;;;;;28.79;34.40;100473.12;4378067;32;32465;-80